Time;durP1;ratioP1;P1;durP2;ratioP2;P2;SDS_P1;SDS_P2;PMS_P1;PMS_P2;Temp;Humidity;BMP_temperature;BMP_pressure;BME280_temperature;BME280_humidity;BME280_pressure;Samples;Min_cycle;Max_cycle;Signal;HPM_P1;HPM_P2
2024/02/29 00:02:12;;;;;;;4.13;3.73;;;8.60;99.90;;;;;;5091838;28;20281;-91
2024/02/29 00:04:38;;;;;;;2.40;1.90;;;8.60;99.90;;;;;;5075395;28;20312;-90
2024/02/29 00:07:04;;;;;;;6.70;4.20;;;8.60;99.90;;;;;;5058409;28;20236;-91
2024/02/29 00:09:31;;;;;;;3.03;2.83;;;8.70;99.90;;;;;;5075864;28;20197;-90
2024/02/29 00:11:57;;;;;;;2.30;1.47;;;8.60;99.90;;;;;;5093002;28;20227;-91
2024/02/29 00:14:23;;;;;;;3.00;2.33;;;8.60;99.90;;;;;;5075557;28;20224;-90
2024/02/29 00:16:50;;;;;;;3.67;3.40;;;8.60;99.90;;;;;;5095661;28;20220;-91
2024/02/29 00:19:15;;;;;;;2.17;2.00;;;8.60;99.90;;;;;;5079575;28;20290;-91
2024/02/29 00:21:41;;;;;;;4.23;3.00;;;8.60;99.90;;;;;;5079803;28;20216;-91
2024/02/29 00:24:07;;;;;;;3.17;2.47;;;8.60;99.90;;;;;;5079146;28;20553;-92
2024/02/29 00:26:33;;;;;;;1.90;1.50;;;8.50;99.90;;;;;;5095937;28;20251;-90
2024/02/29 00:29:01;;;;;;;8.77;4.00;;;8.50;99.90;;;;;;5079018;28;20216;-91
2024/02/29 00:31:27;;;;;;;4.57;2.77;;;8.60;99.90;;;;;;5078845;28;20319;-93
2024/02/29 00:33:53;;;;;;;4.90;4.27;;;8.50;99.90;;;;;;5079586;28;20188;-90
2024/02/29 00:36:19;;;;;;;3.47;3.03;;;8.50;99.90;;;;;;5079040;28;20257;-87
2024/02/29 00:38:46;;;;;;;4.67;4.27;;;8.50;99.90;;;;;;5078539;28;20228;-90
2024/02/29 00:41:13;;;;;;;6.73;5.17;;;8.50;99.90;;;;;;5078989;28;20278;-89
2024/02/29 00:43:40;;;;;;;5.17;3.67;;;8.50;99.90;;;;;;5096562;28;20688;-88
2024/02/29 00:46:06;;;;;;;2.33;2.17;;;8.60;99.90;;;;;;5078786;28;20196;-90
2024/02/29 00:48:32;;;;;;;4.00;2.67;;;8.50;99.90;;;;;;5079125;28;20721;-88
2024/02/29 00:51:16;;;;;;;2.87;2.27;;;8.50;99.90;;;;;;5067245;28;20250;-88
2024/02/29 00:53:42;;;;;;;4.93;3.20;;;8.50;99.90;;;;;;5061816;28;20692;-89
2024/02/29 00:56:08;;;;;;;3.47;3.13;;;8.50;99.90;;;;;;5061881;28;20228;-90
2024/02/29 00:58:35;;;;;;;2.67;2.30;;;8.50;99.90;;;;;;5061928;28;20259;-90
2024/02/29 01:01:01;;;;;;;2.27;2.03;;;8.50;99.90;;;;;;5062082;28;20220;-91
2024/02/29 01:03:27;;;;;;;2.90;2.77;;;8.50;99.90;;;;;;5079026;28;20188;-90
2024/02/29 01:05:53;;;;;;;3.60;1.73;;;8.50;99.90;;;;;;5078583;28;20224;-93
2024/02/29 01:08:19;;;;;;;4.03;3.50;;;8.50;99.90;;;;;;5061511;28;20220;-89
2024/02/29 01:10:45;;;;;;;3.33;3.03;;;8.40;99.90;;;;;;5061773;28;20224;-90
2024/02/29 01:13:11;;;;;;;1.27;1.20;;;8.40;99.90;;;;;;5078272;28;20196;-90
2024/02/29 01:15:37;;;;;;;3.90;3.20;;;8.50;99.90;;;;;;5096708;28;20684;-90
2024/02/29 01:18:05;;;;;;;1.60;1.50;;;8.50;99.90;;;;;;5077857;28;20745;-90
2024/02/29 01:20:32;;;;;;;2.47;2.00;;;8.40;99.90;;;;;;5078589;28;20289;-91
2024/02/29 01:22:58;;;;;;;5.87;3.47;;;8.40;99.90;;;;;;5078190;28;20222;-89
2024/02/29 01:25:23;;;;;;;7.03;3.80;;;8.40;99.90;;;;;;5095747;28;20295;-93
2024/02/29 01:27:50;;;;;;;6.13;3.33;;;8.40;99.90;;;;;;5077877;28;20192;-91
2024/02/29 01:30:16;;;;;;;3.87;3.23;;;8.50;99.90;;;;;;5077456;28;20762;-90
2024/02/29 01:32:42;;;;;;;3.03;2.27;;;8.50;99.90;;;;;;5078175;28;20224;-89
2024/02/29 01:35:09;;;;;;;3.30;2.97;;;8.40;99.90;;;;;;5078094;28;20220;-88
2024/02/29 01:37:35;;;;;;;1.00;0.87;;;8.50;99.90;;;;;;5095689;28;20224;-89
2024/02/29 01:40:01;;;;;;;3.23;2.97;;;8.40;99.90;;;;;;5077912;28;20253;-91
2024/02/29 01:42:27;;;;;;;5.53;3.50;;;8.30;99.90;;;;;;5094744;28;20235;-89
2024/02/29 01:44:54;;;;;;;6.03;2.60;;;8.40;99.90;;;;;;5061067;28;20311;-90
2024/02/29 01:47:21;;;;;;;1.43;1.33;;;8.30;99.90;;;;;;5060887;28;20726;-87
2024/02/29 01:49:49;;;;;;;6.33;4.03;;;8.30;99.90;;;;;;5077210;28;20299;-89
2024/02/29 01:52:19;;;;;;;4.17;3.67;;;8.30;99.90;;;;;;5077927;28;20228;-90
2024/02/29 01:54:46;;;;;;;8.77;5.50;;;8.40;99.90;;;;;;5078158;28;20169;-90
2024/02/29 01:57:12;;;;;;;5.07;4.07;;;8.40;99.90;;;;;;5060611;28;20224;-89
2024/02/29 01:59:38;;;;;;;4.57;2.20;;;8.30;99.90;;;;;;5077444;28;20235;-91
2024/02/29 02:02:05;;;;;;;3.97;3.50;;;8.30;99.90;;;;;;5077206;28;20323;-90
2024/02/29 02:04:31;;;;;;;8.00;4.47;;;8.20;99.90;;;;;;5095096;28;20255;-89
2024/02/29 02:06:58;;;;;;;3.27;2.97;;;8.30;99.90;;;;;;5077880;28;20205;-89
2024/02/29 02:09:24;;;;;;;4.43;2.20;;;8.20;99.90;;;;;;5060123;28;20673;-90
2024/02/29 02:11:50;;;;;;;7.40;3.37;;;8.20;99.90;;;;;;5077032;28;20224;-90
2024/02/29 02:14:16;;;;;;;2.93;2.73;;;8.20;99.90;;;;;;5060667;28;20700;-90
2024/02/29 02:16:43;;;;;;;3.93;1.70;;;8.30;99.90;;;;;;5076804;28;20303;-90
2024/02/29 02:19:12;;;;;;;3.13;2.90;;;8.20;99.90;;;;;;5060340;28;20228;-90
2024/02/29 02:21:39;;;;;;;4.07;3.67;;;8.30;99.90;;;;;;5060548;28;20221;-92
2024/02/29 02:24:05;;;;;;;4.67;3.73;;;8.30;99.90;;;;;;5077367;28;20224;-88
2024/02/29 02:26:32;;;;;;;2.20;1.83;;;8.30;99.90;;;;;;5076823;28;20315;-89
2024/02/29 02:28:57;;;;;;;3.67;3.03;;;8.40;99.90;;;;;;5077112;28;20269;-90
2024/02/29 02:31:23;;;;;;;4.57;4.00;;;8.30;99.90;;;;;;5076515;28;20680;-89
2024/02/29 02:33:49;;;;;;;2.97;1.87;;;8.30;99.90;;;;;;5093787;28;20224;-90
2024/02/29 02:36:15;;;;;;;3.43;3.10;;;8.30;99.90;;;;;;5094314;28;20261;-89
2024/02/29 02:38:41;;;;;;;3.93;2.57;;;8.30;99.90;;;;;;5059396;28;20231;-90
2024/02/29 02:41:06;;;;;;;6.17;4.00;;;8.30;99.90;;;;;;5076113;28;20236;-92
2024/02/29 02:43:32;;;;;;;2.33;1.97;;;8.30;99.90;;;;;;5094456;28;20224;-88
2024/02/29 02:45:58;;;;;;;2.53;2.33;;;8.30;99.90;;;;;;5060407;28;20664;-91
2024/02/29 02:48:23;;;;;;;3.23;1.93;;;8.30;99.90;;;;;;5093645;28;20240;-90
2024/02/29 02:50:51;;;;;;;7.37;4.27;;;8.30;99.90;;;;;;5076209;28;20295;-91
2024/02/29 02:53:16;;;;;;;5.60;3.13;;;8.30;99.90;;;;;;5076607;28;20248;-90
2024/02/29 02:55:42;;;;;;;6.50;4.73;;;8.30;99.90;;;;;;5092847;28;20224;-88
2024/02/29 02:58:08;;;;;;;2.50;2.13;;;8.30;99.90;;;;;;5058983;28;20199;-88
2024/02/29 03:00:34;;;;;;;3.13;2.90;;;8.30;99.90;;;;;;5075971;28;20303;-91
2024/02/29 03:03:01;;;;;;;6.53;4.47;;;8.20;99.90;;;;;;5093042;28;20216;-90
2024/02/29 03:05:26;;;;;;;3.40;2.47;;;8.30;99.90;;;;;;5075801;28;20263;-92
2024/02/29 03:07:52;;;;;;;5.17;2.73;;;8.10;99.90;;;;;;5058978;28;20216;-91
2024/02/29 03:10:18;;;;;;;7.47;3.33;;;8.10;99.90;;;;;;5058808;28;20197;-90
2024/02/29 03:12:46;;;;;;;4.50;2.17;;;8.10;99.90;;;;;;5094453;28;20203;-89
2024/02/29 03:15:13;;;;;;;10.53;5.33;;;8.00;99.90;;;;;;5092391;28;20227;-89
2024/02/29 03:17:38;;;;;;;4.50;3.37;;;8.00;99.90;;;;;;5075881;28;20745;-90
2024/02/29 03:20:11;;;;;;;2.60;1.93;;;7.90;99.90;;;;;;5059524;28;20220;-91
2024/02/29 03:22:39;;;;;;;4.00;3.10;;;8.00;99.90;;;;;;5075789;28;20220;-89
2024/02/29 03:25:05;;;;;;;4.67;3.87;;;7.90;99.90;;;;;;5075324;28;20672;-92
2024/02/29 03:27:31;;;;;;;4.37;3.17;;;7.80;99.90;;;;;;5075997;28;20204;-91
2024/02/29 03:29:59;;;;;;;3.20;2.90;;;8.00;99.90;;;;;;5075767;28;20228;-89
2024/02/29 03:32:25;;;;;;;5.13;2.20;;;7.90;99.90;;;;;;5075395;28;20223;-89
2024/02/29 03:34:51;;;;;;;4.67;3.57;;;8.00;99.90;;;;;;5092398;28;20678;-89
2024/02/29 03:37:17;;;;;;;3.77;2.43;;;7.70;99.90;;;;;;5059056;28;20225;-91
2024/02/29 03:39:45;;;;;;;5.80;3.83;;;7.80;99.90;;;;;;5076381;28;20192;-92
2024/02/29 03:42:11;;;;;;;5.67;3.77;;;8.00;99.90;;;;;;5058961;28;20259;-90
2024/02/29 03:44:41;;;;;;;6.27;2.80;;;7.70;99.90;;;;;;5075661;28;20606;-90
2024/02/29 03:47:07;;;;;;;6.73;4.33;;;7.90;99.90;;;;;;5093191;28;20236;-90
2024/02/29 03:49:33;;;;;;;2.73;2.00;;;8.00;99.90;;;;;;5093117;28;20220;-90
2024/02/29 03:52:00;;;;;;;4.30;3.43;;;7.90;99.90;;;;;;5092274;28;20259;-90
2024/02/29 03:54:26;;;;;;;2.27;2.07;;;7.60;99.90;;;;;;5075335;28;20239;-90
2024/02/29 03:56:51;;;;;;;6.07;2.27;;;7.60;99.90;;;;;;5075062;28;20636;-90
2024/02/29 03:59:18;;;;;;;3.57;3.37;;;7.80;99.90;;;;;;5075504;28;20216;-90
2024/02/29 04:01:51;;;;;;;3.57;2.17;;;7.70;99.90;;;;;;5058775;28;20239;-90
2024/02/29 04:04:18;;;;;;;6.77;2.40;;;7.70;99.90;;;;;;5075262;28;20207;-90
2024/02/29 04:06:44;;;;;;;4.13;3.73;;;8.00;99.90;;;;;;5093891;28;20189;-91
2024/02/29 04:09:10;;;;;;;6.83;2.97;;;7.80;99.90;;;;;;5058490;28;20292;-91
2024/02/29 04:11:39;;;;;;;7.40;3.07;;;7.90;99.90;;;;;;5058616;28;20224;-89
2024/02/29 04:14:05;;;;;;;11.17;3.73;;;8.00;99.90;;;;;;5093151;28;20230;-90
2024/02/29 04:16:38;;;;;;;6.50;3.03;;;7.90;99.90;;;;;;5092130;28;20291;-91
2024/02/29 04:19:04;;;;;;;3.40;3.10;;;7.90;99.90;;;;;;5075201;28;20193;-91
2024/02/29 04:21:33;;;;;;;6.20;3.17;;;7.70;99.90;;;;;;5076054;28;20307;-90
2024/02/29 04:24:00;;;;;;;5.70;2.93;;;7.70;99.90;;;;;;5075311;28;20273;-93
2024/02/29 04:26:26;;;;;;;4.47;4.17;;;8.00;99.90;;;;;;5093237;28;20228;-90
2024/02/29 04:28:53;;;;;;;1.77;1.63;;;7.70;99.90;;;;;;5058475;28;20295;-89
2024/02/29 04:31:19;;;;;;;7.30;2.97;;;8.00;99.90;;;;;;5091599;28;20677;-93
2024/02/29 04:33:45;;;;;;;3.93;2.70;;;7.90;99.90;;;;;;5093285;28;20188;-89
2024/02/29 04:36:12;;;;;;;3.33;2.50;;;7.90;99.90;;;;;;5075140;28;20692;-90
2024/02/29 04:38:37;;;;;;;4.27;3.87;;;8.00;99.90;;;;;;5075233;28;20231;-91
2024/02/29 04:41:03;;;;;;;3.53;3.23;;;7.80;99.90;;;;;;5075015;28;20253;-89
2024/02/29 04:43:29;;;;;;;4.77;2.93;;;8.10;99.90;;;;;;5075003;28;20231;-89
2024/02/29 04:45:55;;;;;;;10.73;3.67;;;7.90;99.90;;;;;;5093222;28;20199;-91
2024/02/29 04:48:21;;;;;;;3.80;3.50;;;7.90;99.90;;;;;;5091861;28;20240;-90
2024/02/29 04:50:47;;;;;;;4.60;2.97;;;7.90;99.90;;;;;;5058381;28;20227;-93
2024/02/29 04:53:14;;;;;;;5.30;4.77;;;8.00;99.90;;;;;;5091594;28;20216;-89
2024/02/29 04:55:42;;;;;;;3.20;2.93;;;8.00;99.90;;;;;;5091789;28;20220;-90
2024/02/29 04:58:08;;;;;;;2.37;1.77;;;7.80;99.90;;;;;;5074651;28;20212;-90
2024/02/29 05:00:33;;;;;;;3.27;2.53;;;7.90;99.90;;;;;;5075057;28;20228;-90
2024/02/29 05:03:01;;;;;;;4.37;3.33;;;8.10;99.90;;;;;;5076205;28;20227;-90
2024/02/29 05:05:27;;;;;;;4.67;2.80;;;7.80;99.90;;;;;;5096930;28;20292;-90
2024/02/29 05:07:54;;;;;;;4.53;2.57;;;8.10;99.90;;;;;;5053768;28;20299;-92
2024/02/29 05:10:21;;;;;;;4.17;3.63;;;8.00;99.90;;;;;;5061648;28;20198;-90
2024/02/29 05:12:50;;;;;;;3.97;3.50;;;7.80;99.90;;;;;;5062464;28;20192;-90
2024/02/29 05:15:19;;;;;;;3.47;3.17;;;7.90;99.90;;;;;;5077659;28;20246;-91
2024/02/29 05:17:48;;;;;;;4.83;3.13;;;7.90;99.90;;;;;;5061706;28;20266;-91
2024/02/29 05:20:14;;;;;;;4.00;2.20;;;8.00;99.90;;;;;;5096080;28;20302;-91
2024/02/29 05:22:41;;;;;;;6.00;2.83;;;8.00;99.90;;;;;;5078118;28;20248;-89
2024/02/29 05:25:09;;;;;;;3.77;3.47;;;7.90;99.90;;;;;;5061089;28;20284;-90
2024/02/29 05:27:36;;;;;;;3.47;2.63;;;7.80;99.90;;;;;;5079200;28;20261;-89
2024/02/29 05:30:02;;;;;;;3.37;2.93;;;8.10;99.90;;;;;;5077884;28;20217;-90
2024/02/29 05:32:28;;;;;;;5.57;2.93;;;7.90;99.90;;;;;;5078162;28;20228;-90
2024/02/29 05:34:54;;;;;;;3.50;2.90;;;8.10;99.90;;;;;;5095931;28;20683;-92
2024/02/29 05:37:19;;;;;;;5.57;4.73;;;8.00;99.90;;;;;;5077935;28;20192;-93
2024/02/29 05:39:46;;;;;;;2.97;1.67;;;7.90;99.90;;;;;;5078403;28;20231;-92
2024/02/29 05:42:11;;;;;;;2.50;2.17;;;7.90;99.90;;;;;;5077994;28;20228;-92
2024/02/29 05:44:37;;;;;;;2.27;1.63;;;8.10;99.90;;;;;;5069361;28;20227;-90
2024/02/29 05:47:03;;;;;;;2.77;2.47;;;8.20;99.90;;;;;;5077474;28;20351;-92
2024/02/29 05:49:29;;;;;;;3.73;3.10;;;8.00;99.90;;;;;;5077545;28;20220;-90
2024/02/29 05:51:55;;;;;;;2.37;2.23;;;8.10;99.90;;;;;;5078252;28;20208;-91
2024/02/29 05:54:21;;;;;;;5.47;3.03;;;8.10;99.90;;;;;;5077767;28;20220;-91
2024/02/29 05:56:46;;;;;;;2.27;2.07;;;8.20;99.90;;;;;;5094288;28;20286;-90
2024/02/29 05:59:12;;;;;;;4.10;2.77;;;8.20;99.90;;;;;;5060962;28;20230;-91
2024/02/29 06:01:39;;;;;;;4.23;2.67;;;8.10;99.90;;;;;;5094347;28;20232;-91
2024/02/29 06:04:05;;;;;;;3.60;1.70;;;8.00;99.90;;;;;;5060681;28;20189;-91
2024/02/29 06:06:31;;;;;;;2.57;2.37;;;8.10;99.90;;;;;;5078115;28;20203;-92
2024/02/29 06:08:56;;;;;;;3.33;2.73;;;7.90;99.90;;;;;;5060327;28;20231;-89
2024/02/29 06:11:22;;;;;;;4.07;3.73;;;8.00;99.90;;;;;;5077516;28;20228;-91
2024/02/29 06:13:48;;;;;;;3.90;3.30;;;8.20;99.90;;;;;;5059979;28;20217;-91
2024/02/29 06:16:14;;;;;;;2.53;2.30;;;8.30;99.90;;;;;;5060563;28;20189;-88
2024/02/29 06:18:39;;;;;;;4.80;3.70;;;8.10;99.90;;;;;;5061009;28;20330;-91
2024/02/29 06:21:05;;;;;;;5.20;3.47;;;8.00;99.90;;;;;;5094845;28;20231;-91
2024/02/29 06:23:31;;;;;;;3.87;2.27;;;8.20;99.90;;;;;;5060283;28;20224;-93
2024/02/29 06:25:57;;;;;;;2.60;2.40;;;8.10;99.90;;;;;;5076637;28;20714;-90
2024/02/29 06:28:23;;;;;;;4.27;3.93;;;8.40;99.90;;;;;;5076405;28;20244;-90
2024/02/29 06:30:49;;;;;;;4.80;3.33;;;8.30;99.90;;;;;;5077145;28;20288;-90
2024/02/29 06:33:15;;;;;;;1.50;1.47;;;8.40;99.90;;;;;;5076836;28;20228;-91
2024/02/29 06:35:41;;;;;;;4.47;2.33;;;8.30;99.90;;;;;;5076235;28;20227;-90
2024/02/29 06:38:06;;;;;;;3.20;2.63;;;8.30;99.90;;;;;;5076061;28;20311;-88
2024/02/29 06:40:32;;;;;;;4.20;2.67;;;8.20;99.90;;;;;;5093712;28;20266;-87
2024/02/29 06:42:59;;;;;;;1.23;1.23;;;8.10;99.90;;;;;;5076490;28;20242;-88
2024/02/29 06:45:25;;;;;;;4.53;3.63;;;8.20;99.90;;;;;;5075647;28;20229;-91
2024/02/29 06:47:51;;;;;;;6.70;3.67;;;8.10;99.90;;;;;;5092940;28;20229;-88
2024/02/29 06:50:16;;;;;;;3.10;2.80;;;8.00;99.90;;;;;;5049379;28;20733;-88
2024/02/29 06:52:42;;;;;;;4.67;2.57;;;8.30;99.90;;;;;;5058663;28;20646;-87
2024/02/29 06:55:08;;;;;;;5.53;1.60;;;8.10;99.90;;;;;;5075399;28;20697;-91
2024/02/29 06:57:35;;;;;;;3.33;3.13;;;7.90;99.90;;;;;;5059561;28;20532;-88
2024/02/29 07:00:01;;;;;;;1.67;1.57;;;8.00;99.90;;;;;;5092364;28;20252;-89
2024/02/29 07:02:26;;;;;;;3.00;2.70;;;8.20;99.90;;;;;;5075256;28;20772;-88
2024/02/29 07:04:52;;;;;;;2.67;1.80;;;8.00;99.90;;;;;;5075587;28;20223;-90
2024/02/29 07:07:19;;;;;;;3.43;3.07;;;8.10;99.90;;;;;;5075776;28;20228;-90
2024/02/29 07:09:44;;;;;;;3.53;1.80;;;8.20;99.90;;;;;;5076389;28;20200;-91
2024/02/29 07:12:13;;;;;;;4.93;2.90;;;8.20;99.90;;;;;;5058857;28;20224;-91
2024/02/29 07:14:39;;;;;;;2.97;2.70;;;8.20;99.90;;;;;;5083121;28;20227;-89
2024/02/29 07:17:05;;;;;;;3.30;2.23;;;8.00;99.90;;;;;;5075220;28;20619;-90
2024/02/29 07:19:36;;;;;;;2.50;1.53;;;8.00;99.90;;;;;;5075430;28;20273;-90
2024/02/29 07:22:02;;;;;;;5.07;2.33;;;8.10;99.90;;;;;;5058837;28;20765;-90
2024/02/29 07:24:28;;;;;;;3.53;1.83;;;8.00;99.90;;;;;;5075514;28;20628;-89
2024/02/29 07:26:54;;;;;;;6.17;2.57;;;8.00;99.90;;;;;;5092447;28;20274;-90
2024/02/29 07:29:19;;;;;;;2.37;1.93;;;8.00;99.90;;;;;;5075329;28;20227;-92
2024/02/29 07:31:45;;;;;;;2.90;2.70;;;8.30;99.90;;;;;;5075642;28;20589;-94
2024/02/29 07:34:15;;;;;;;2.40;2.03;;;8.20;99.90;;;;;;5058360;28;20223;-91
2024/02/29 07:36:42;;;;;;;9.60;3.20;;;8.20;99.90;;;;;;5076292;28;20181;-90
2024/02/29 07:39:07;;;;;;;2.07;1.63;;;8.20;99.90;;;;;;5059219;28;20224;-90
2024/02/29 07:41:33;;;;;;;3.07;2.87;;;8.10;99.90;;;;;;5076039;28;20235;-90
2024/02/29 07:43:59;;;;;;;3.63;2.23;;;8.10;99.90;;;;;;5092396;28;20223;-89
2024/02/29 07:46:25;;;;;;;2.13;1.97;;;8.00;99.90;;;;;;5092735;28;20686;-91
2024/02/29 07:48:51;;;;;;;4.17;3.43;;;8.30;99.90;;;;;;5072667;28;20225;-91
2024/02/29 07:51:17;;;;;;;2.67;1.73;;;8.20;99.90;;;;;;5072325;28;20323;-91
2024/02/29 07:53:43;;;;;;;5.37;1.90;;;8.10;99.90;;;;;;5055823;28;20233;-93
2024/02/29 07:56:09;;;;;;;3.23;2.97;;;8.20;99.90;;;;;;5054807;28;20554;-91
2024/02/29 07:58:35;;;;;;;5.07;2.77;;;8.10;99.90;;;;;;5063342;28;20263;-91
2024/02/29 08:01:02;;;;;;;3.53;3.23;;;8.20;99.90;;;;;;5071672;28;20224;-90
2024/02/29 08:03:32;;;;;;;2.90;2.70;;;8.10;99.90;;;;;;5072364;28;20190;-93
2024/02/29 08:05:58;;;;;;;4.80;3.17;;;8.20;99.90;;;;;;5071922;28;20304;-91
2024/02/29 08:08:24;;;;;;;1.97;1.87;;;8.20;99.90;;;;;;5073091;28;20244;-92
2024/02/29 08:10:49;;;;;;;4.20;3.73;;;8.30;99.90;;;;;;5071392;28;20229;-93
2024/02/29 08:13:15;;;;;;;4.97;4.43;;;8.20;99.90;;;;;;5071462;28;20661;-92
2024/02/29 08:15:44;;;;;;;4.97;3.27;;;8.40;99.90;;;;;;5055739;28;20185;-91
2024/02/29 08:18:10;;;;;;;2.77;2.27;;;8.40;99.90;;;;;;5072896;28;20217;-93
2024/02/29 08:20:38;;;;;;;3.57;3.27;;;8.30;99.90;;;;;;5072627;28;20232;-91
2024/02/29 08:23:04;;;;;;;2.93;2.77;;;8.60;99.90;;;;;;5071507;28;20228;-91
2024/02/29 08:25:30;;;;;;;2.53;2.30;;;8.60;99.90;;;;;;5072142;28;20217;-90
2024/02/29 08:27:56;;;;;;;3.53;2.90;;;8.70;99.90;;;;;;5071482;28;20209;-91
2024/02/29 08:30:23;;;;;;;4.97;2.80;;;8.60;99.90;;;;;;5071697;28;20220;-89
2024/02/29 08:32:49;;;;;;;5.20;2.77;;;8.50;99.90;;;;;;5070895;28;20256;-92
2024/02/29 08:35:16;;;;;;;2.93;2.33;;;8.50;99.90;;;;;;5072759;28;20813;-94
2024/02/29 08:37:45;;;;;;;3.23;2.80;;;8.50;99.90;;;;;;5074061;28;20225;-93
2024/02/29 08:40:11;;;;;;;2.27;1.90;;;8.50;99.90;;;;;;5076282;28;20657;-91
2024/02/29 08:42:37;;;;;;;1.67;1.57;;;8.70;99.90;;;;;;5076115;28;20229;-91
2024/02/29 08:45:03;;;;;;;3.53;2.73;;;8.80;99.90;;;;;;5076852;28;20217;-90
2024/02/29 08:47:29;;;;;;;3.90;3.47;;;8.80;99.90;;;;;;5060322;28;20228;-88
2024/02/29 08:49:55;;;;;;;3.47;3.00;;;8.70;99.90;;;;;;5061272;28;20264;-88
2024/02/29 08:52:21;;;;;;;2.43;1.90;;;8.60;99.90;;;;;;5060739;28;20220;-87
2024/02/29 08:54:47;;;;;;;5.33;4.03;;;8.80;99.90;;;;;;5061684;28;20230;-90
2024/02/29 08:57:12;;;;;;;2.60;2.37;;;8.90;99.90;;;;;;5077714;28;20259;-88
2024/02/29 08:59:38;;;;;;;2.80;1.60;;;8.70;99.90;;;;;;5095210;28;20217;-90
2024/02/29 09:02:05;;;;;;;2.50;2.30;;;8.70;99.90;;;;;;5077253;28;20224;-88
2024/02/29 09:04:31;;;;;;;2.30;2.10;;;8.90;99.90;;;;;;5060718;28;20278;-86
2024/02/29 09:06:57;;;;;;;3.40;3.20;;;8.70;99.90;;;;;;5061111;28;20205;-89
2024/02/29 09:09:23;;;;;;;5.47;3.30;;;8.70;99.90;;;;;;5077035;28;20308;-87
2024/02/29 09:11:50;;;;;;;1.70;1.57;;;8.70;99.90;;;;;;5077564;28;20227;-91
2024/02/29 09:14:16;;;;;;;1.40;1.30;;;8.80;99.90;;;;;;5077610;28;20299;-91
2024/02/29 09:16:43;;;;;;;3.03;2.73;;;8.80;99.90;;;;;;5077553;28;20224;-88
2024/02/29 09:19:09;;;;;;;3.37;3.10;;;8.80;99.90;;;;;;5060463;28;20196;-88
2024/02/29 09:21:35;;;;;;;4.10;3.10;;;8.80;99.90;;;;;;5061012;28;20231;-87
2024/02/29 09:24:01;;;;;;;4.37;3.27;;;8.90;99.90;;;;;;5061061;28;20307;-91
2024/02/29 09:26:27;;;;;;;3.90;1.47;;;9.00;99.90;;;;;;5095308;28;20696;-89
2024/02/29 09:28:53;;;;;;;3.23;2.07;;;9.00;99.90;;;;;;5060783;28;20232;-92
2024/02/29 09:31:18;;;;;;;1.30;1.20;;;9.10;99.90;;;;;;5060536;28;20214;-92
2024/02/29 09:33:44;;;;;;;7.77;2.60;;;9.10;99.90;;;;;;5077478;28;20232;-92
2024/02/29 09:36:11;;;;;;;2.20;1.73;;;9.00;99.90;;;;;;5076917;28;20277;-88
2024/02/29 09:38:38;;;;;;;2.87;1.70;;;9.10;99.90;;;;;;5077243;28;20263;-89
2024/02/29 09:41:09;;;;;;;2.83;1.63;;;9.00;99.90;;;;;;5076941;28;20278;-86
2024/02/29 09:43:35;;;;;;;3.03;2.80;;;9.00;99.90;;;;;;5094974;28;20228;-88
2024/02/29 09:46:02;;;;;;;2.53;2.43;;;9.10;99.90;;;;;;5077159;28;20216;-86
2024/02/29 09:48:29;;;;;;;4.70;2.57;;;9.10;99.90;;;;;;5076355;28;20237;-88
2024/02/29 09:50:59;;;;;;;3.43;2.93;;;9.20;99.90;;;;;;5060592;28;20629;-87
2024/02/29 09:53:28;;;;;;;4.87;3.20;;;9.00;99.90;;;;;;5095063;28;20326;-86
2024/02/29 09:55:56;;;;;;;2.93;2.47;;;9.30;99.90;;;;;;5076632;28;20224;-86
2024/02/29 09:58:22;;;;;;;3.70;3.10;;;9.30;99.90;;;;;;5059888;28;20677;-89
2024/02/29 10:00:48;;;;;;;1.83;1.73;;;9.30;99.90;;;;;;5060459;28;20224;-86
2024/02/29 10:03:16;;;;;;;1.50;1.40;;;9.30;99.90;;;;;;5059639;28;20227;-89
2024/02/29 10:05:44;;;;;;;2.87;2.43;;;9.30;99.90;;;;;;5076512;28;20710;-91
2024/02/29 10:08:10;;;;;;;7.20;2.90;;;9.30;99.90;;;;;;5076839;28;20226;-86
2024/02/29 10:10:36;;;;;;;2.33;2.13;;;9.40;99.90;;;;;;5075424;28;20307;-87
2024/02/29 10:13:02;;;;;;;4.10;3.33;;;9.40;99.90;;;;;;5059563;28;20599;-87
2024/02/29 10:15:29;;;;;;;3.40;2.97;;;9.30;99.90;;;;;;5060020;28;20656;-88
2024/02/29 10:17:59;;;;;;;3.20;3.00;;;9.40;99.90;;;;;;5076259;28;20269;-90
2024/02/29 10:20:25;;;;;;;2.43;2.03;;;9.30;99.90;;;;;;5076428;28;20224;-87
2024/02/29 10:22:51;;;;;;;3.17;1.37;;;9.30;99.90;;;;;;5076319;28;20224;-87
2024/02/29 10:25:18;;;;;;;2.03;1.60;;;9.40;99.90;;;;;;5075973;28;20379;-87
2024/02/29 10:27:46;;;;;;;3.33;2.83;;;9.40;99.90;;;;;;5076982;28;20238;-88
2024/02/29 10:30:14;;;;;;;6.30;3.10;;;9.20;99.90;;;;;;5076262;28;20577;-89
2024/02/29 10:32:42;;;;;;;2.50;2.13;;;9.20;99.90;;;;;;5075398;28;20265;-87
2024/02/29 10:35:27;;;;;;;2.97;2.43;;;9.20;99.90;;;;;;5059712;28;20228;-87
2024/02/29 10:37:54;;;;;;;1.87;1.43;;;9.50;99.90;;;;;;5059590;28;20215;-88
2024/02/29 10:40:23;;;;;;;2.50;2.30;;;9.40;99.90;;;;;;5059212;28;20184;-87
2024/02/29 10:42:51;;;;;;;2.80;2.37;;;9.30;99.90;;;;;;5076611;28;20216;-87
2024/02/29 10:45:17;;;;;;;5.53;3.00;;;9.40;99.90;;;;;;5075636;28;20637;-87
2024/02/29 10:48:09;;;;;;;3.33;3.13;;;9.50;99.90;;;;;;5093659;28;20236;-88
2024/02/29 10:51:01;;;;;;;2.57;2.40;;;9.40;99.90;;;;;;5076001;28;20696;-90
2024/02/29 10:53:38;;;;;;;1.50;1.40;;;9.50;99.90;;;;;;5075685;28;20315;-88
2024/02/29 10:56:16;;;;;;;2.43;1.93;;;9.50;99.90;;;;;;5075408;28;20590;-89
2024/02/29 10:58:44;;;;;;;3.97;1.43;;;9.40;99.90;;;;;;5093777;28;20227;-90
2024/02/29 11:01:10;;;;;;;4.20;2.80;;;9.50;99.90;;;;;;5091459;28;20261;-89
2024/02/29 11:03:38;;;;;;;2.30;2.07;;;9.40;99.90;;;;;;5059941;28;20279;-90
2024/02/29 11:06:05;;;;;;;3.03;1.73;;;9.50;99.90;;;;;;5075583;28;20309;-90
2024/02/29 11:08:32;;;;;;;1.63;1.53;;;9.50;99.90;;;;;;5059361;28;20289;-89
2024/02/29 11:10:59;;;;;;;1.47;1.37;;;9.50;99.90;;;;;;5058603;28;20715;-89
2024/02/29 11:13:28;;;;;;;3.70;1.33;;;9.50;99.90;;;;;;5075469;28;20273;-90
2024/02/29 11:15:55;;;;;;;3.30;3.00;;;9.40;99.90;;;;;;5059672;28;20192;-89
2024/02/29 11:18:23;;;;;;;2.53;2.10;;;9.50;99.90;;;;;;5092445;28;20220;-87
2024/02/29 11:21:04;;;;;;;6.80;1.73;;;9.60;99.90;;;;;;5075255;28;20713;-86
2024/02/29 11:23:34;;;;;;;3.23;2.87;;;9.60;99.90;;;;;;5074827;28;20801;-88
2024/02/29 11:26:01;;;;;;;2.70;2.47;;;9.60;99.90;;;;;;5058443;28;20220;-87
2024/02/29 11:28:32;;;;;;;1.70;1.20;;;9.60;99.90;;;;;;5058498;28;20216;-88
2024/02/29 11:31:11;;;;;;;1.60;1.30;;;9.40;99.90;;;;;;5075518;28;20188;-89
2024/02/29 11:33:37;;;;;;;2.53;2.33;;;9.70;99.90;;;;;;5093075;28;20205;-88
2024/02/29 11:36:04;;;;;;;3.40;2.93;;;9.70;99.90;;;;;;5092595;28;20643;-90
2024/02/29 11:38:34;;;;;;;1.60;1.50;;;9.70;99.90;;;;;;5074545;28;20306;-89
2024/02/29 11:41:00;;;;;;;2.60;2.23;;;9.70;99.90;;;;;;5074733;28;20228;-90
2024/02/29 11:43:26;;;;;;;10.13;2.87;;;9.50;99.90;;;;;;5074830;28;20243;-92
2024/02/29 11:46:06;;;;;;;2.00;1.90;;;9.70;99.90;;;;;;5059056;28;20247;-89
2024/02/29 11:48:32;;;;;;;3.57;3.27;;;9.60;99.90;;;;;;5093493;28;20236;-92
2024/02/29 11:50:58;;;;;;;2.43;1.83;;;9.80;99.90;;;;;;5075298;28;20242;-90
2024/02/29 11:53:25;;;;;;;2.97;1.50;;;9.60;99.90;;;;;;5058741;28;20307;-90
2024/02/29 11:55:52;;;;;;;3.63;2.40;;;9.80;99.90;;;;;;5076515;28;20231;-90
2024/02/29 11:58:18;;;;;;;2.43;2.03;;;9.70;99.90;;;;;;5058956;28;20192;-93
2024/02/29 12:00:45;;;;;;;3.67;2.53;;;9.60;99.90;;;;;;5076135;28;20715;-90
2024/02/29 12:03:11;;;;;;;2.97;2.80;;;9.80;99.90;;;;;;5058248;28;20330;-89
2024/02/29 12:05:44;;;;;;;2.73;2.23;;;9.70;99.90;;;;;;5058418;28;20263;-90
2024/02/29 12:08:11;;;;;;;1.33;1.23;;;9.80;99.90;;;;;;5056061;28;20233;-91
2024/02/29 12:10:39;;;;;;;2.67;1.50;;;9.90;99.90;;;;;;5085280;28;20298;-91
2024/02/29 12:13:22;;;;;;;2.43;2.10;;;9.90;99.90;;;;;;5078475;28;20250;-90
2024/02/29 12:15:51;;;;;;;2.63;2.53;;;9.90;99.90;;;;;;5079833;28;20180;-91
2024/02/29 12:18:25;;;;;;;3.67;2.33;;;9.80;99.90;;;;;;5078433;28;20255;-93
2024/02/29 12:20:53;;;;;;;3.17;1.67;;;9.80;99.90;;;;;;5053910;28;20313;-92
2024/02/29 12:23:20;;;;;;;2.33;2.13;;;9.80;99.90;;;;;;5079072;28;20747;-92
2024/02/29 12:25:46;;;;;;;2.23;1.50;;;9.70;99.90;;;;;;5078748;28;20734;-89
2024/02/29 12:28:17;;;;;;;2.17;1.50;;;9.70;99.90;;;;;;5078871;28;20188;-89
2024/02/29 12:30:48;;;;;;;1.47;1.23;;;9.70;99.90;;;;;;5079399;28;20181;-90
2024/02/29 12:33:15;;;;;;;5.43;2.23;;;9.90;99.90;;;;;;5078748;28;20216;-90
2024/02/29 12:35:44;;;;;;;2.93;2.77;;;9.80;99.90;;;;;;5078214;28;20288;-91
2024/02/29 12:38:17;;;;;;;1.80;1.60;;;9.80;99.90;;;;;;5078724;28;20247;-91
2024/02/29 12:40:51;;;;;;;4.73;3.43;;;9.80;99.90;;;;;;5076106;28;20225;-91
2024/02/29 12:43:17;;;;;;;2.63;2.43;;;9.80;99.90;;;;;;5068472;28;20177;-89
2024/02/29 12:45:48;;;;;;;1.10;1.10;;;9.80;99.90;;;;;;5095697;28;20246;-91
2024/02/29 12:48:18;;;;;;;1.37;1.23;;;9.90;99.90;;;;;;5095015;28;20295;-89
2024/02/29 12:50:53;;;;;;;2.70;2.37;;;9.90;99.90;;;;;;5071095;28;20307;-90
2024/02/29 12:53:42;;;;;;;;;;;;;;;;;;;;;
2024/02/29 12:56:34;;;;;;;1.23;1.13;;;9.90;99.90;;;;;;5073642;28;20339;-90
2024/02/29 12:59:39;;;;;;;1.67;1.40;;;9.90;99.90;;;;;;5049138;28;20221;-95